Time;durP1;ratioP1;P1;durP2;ratioP2;P2;SDS_P1;SDS_P2;PMS_P1;PMS_P2;Temp;Humidity;BMP_temperature;BMP_pressure;BME280_temperature;BME280_humidity;BME280_pressure;Samples;Min_cycle;Max_cycle;Signal;HPM_P1;HPM_P2
2022/07/08 00:02:24;;;;;;;4.10;3.88;;;;;;;18.15;100.00;63879.44;5022119;28;20221;-74
2022/07/08 00:04:51;;;;;;;4.28;4.00;;;;;;;18.19;100.00;63883.59;5022401;28;20236;-74
2022/07/08 00:07:18;;;;;;;4.95;4.22;;;;;;;18.23;100.00;63885.19;5022189;28;20226;-74
2022/07/08 00:09:45;;;;;;;4.72;4.43;;;;;;;18.15;100.00;63882.53;5022231;28;20241;-74
2022/07/08 00:12:12;;;;;;;4.10;3.80;;;;;;;18.21;100.00;63885.69;5022248;28;20225;-74
2022/07/08 00:14:39;;;;;;;7.63;4.50;;;;;;;18.27;100.00;63884.19;5023291;28;20379;-74
2022/07/08 00:17:07;;;;;;;4.70;4.40;;;;;;;18.24;100.00;63883.66;5025888;28;20282;-74
2022/07/08 00:19:34;;;;;;;4.20;4.00;;;;;;;18.34;100.00;63896.66;5026310;28;20206;-74
2022/07/08 00:22:01;;;;;;;4.80;4.38;;;;;;;18.42;100.00;63907.59;5025938;28;20217;-74
2022/07/08 00:24:27;;;;;;;4.93;4.20;;;;;;;18.46;100.00;63906.59;5026378;28;20198;-74
2022/07/08 00:26:54;;;;;;;4.22;3.92;;;;;;;18.40;100.00;63905.50;5026042;28;20218;-73
2022/07/08 00:29:21;;;;;;;4.75;4.45;;;;;;;18.42;100.00;63897.78;5026282;28;20273;-74
2022/07/08 00:31:48;;;;;;;3.67;3.47;;;;;;;18.39;100.00;63904.97;5025697;28;20218;-74
2022/07/08 00:34:16;;;;;;;5.13;3.47;;;;;;;18.36;100.00;63896.16;5025788;28;20207;-74
2022/07/08 00:36:43;;;;;;;7.10;3.63;;;;;;;18.41;100.00;63901.91;5025268;28;20225;-74
2022/07/08 00:39:10;;;;;;;4.22;3.92;;;;;;;18.43;100.00;63903.97;5025564;28;20234;-74
2022/07/08 00:41:37;;;;;;;3.70;3.50;;;;;;;18.43;98.91;63908.63;5024930;28;20276;-74
2022/07/08 00:44:05;;;;;;;3.95;3.72;;;;;;;18.39;98.26;63897.22;5025178;28;20201;-73
2022/07/08 00:46:32;;;;;;;4.43;4.00;;;;;;;18.37;98.04;63902.34;5025074;28;20218;-74
2022/07/08 00:48:59;;;;;;;3.90;3.63;;;;;;;18.39;97.75;63904.44;5025550;28;20198;-74
2022/07/08 00:51:29;;;;;;;3.67;3.47;;;;;;;18.36;98.28;63896.16;5024951;28;20230;-74
2022/07/08 00:53:57;;;;;;;3.80;3.45;;;;;;;18.35;97.75;63898.22;5025236;28;20225;-75
2022/07/08 00:56:26;;;;;;;4.00;3.70;;;;;;;18.35;97.59;63895.09;5025014;28;20232;-73
2022/07/08 00:58:53;;;;;;;3.60;3.40;;;;;;;18.35;97.91;63898.22;5025003;28;20336;-73
2022/07/08 01:01:20;;;;;;;4.28;3.33;;;;;;;18.29;98.53;63891.44;5024302;28;20395;-74
2022/07/08 01:03:47;;;;;;;3.58;3.38;;;;;;;18.40;98.27;63900.34;5024111;28;20202;-74
2022/07/08 01:06:15;;;;;;;3.95;3.75;;;;;;;18.41;98.71;63901.91;5004608;28;20219;-73
2022/07/08 01:08:43;;;;;;;4.38;3.97;;;;;;;18.42;98.63;63902.94;5007543;28;20210;-74
2022/07/08 01:11:11;;;;;;;3.85;3.70;;;;;;;18.35;97.99;63900.25;5024948;28;20391;-73
2022/07/08 01:13:39;;;;;;;3.88;3.50;;;;;;;18.37;98.21;63894.63;5024600;28;20208;-73
2022/07/08 01:16:07;;;;;;;3.70;3.33;;;;;;;18.48;98.76;63911.25;5024823;28;20232;-74
2022/07/08 01:18:34;;;;;;;3.67;3.47;;;;;;;18.50;98.44;63910.75;5024440;28;20230;-74
2022/07/08 01:21:03;;;;;;;3.60;3.40;;;;;;;18.55;97.43;63921.13;5024813;28;20474;-74
2022/07/08 01:23:30;;;;;;;4.05;3.65;;;;;;;18.55;96.53;63918.03;5024461;28;20201;-74
2022/07/08 01:25:59;;;;;;;3.10;2.67;;;;;;;18.59;95.29;63922.72;5024365;28;20264;-74
2022/07/08 01:28:26;;;;;;;3.10;2.97;;;;;;;18.55;95.64;63918.53;5023344;28;20257;-74
2022/07/08 01:30:53;;;;;;;3.17;3.08;;;;;;;18.55;95.93;63915.44;5024412;28;20227;-74
2022/07/08 01:33:20;;;;;;;4.10;3.72;;;;;;;18.53;96.73;63919.06;5024199;28;20482;-74
2022/07/08 01:35:47;;;;;;;3.90;3.60;;;;;;;18.48;97.83;63903.00;5023925;28;20263;-74
2022/07/08 01:38:15;;;;;;;3.58;3.38;;;;;;;18.47;97.79;63912.78;5024116;28;20225;-74
2022/07/08 01:40:42;;;;;;;3.95;3.63;;;;;;;18.46;98.66;63906.06;5023718;28;20226;-74
2022/07/08 01:43:09;;;;;;;3.78;3.55;;;;;;;18.42;99.30;63905.00;5023880;28;20198;-74
2022/07/08 01:45:36;;;;;;;4.18;3.88;;;;;;;18.37;99.31;63900.31;5023609;28;20551;-74
2022/07/08 01:48:04;;;;;;;4.72;4.05;;;;;;;18.35;100.00;63895.63;5023964;28;20505;-73
2022/07/08 01:50:31;;;;;;;4.05;3.80;;;;;;;18.31;100.00;63896.63;5023995;28;20257;-73
2022/07/08 01:52:58;;;;;;;7.18;3.83;;;;;;;18.22;100.00;63879.50;5023773;28;20205;-75
2022/07/08 01:55:27;;;;;;;5.80;3.63;;;;;;;18.23;100.00;63882.59;5023850;28;20281;-74
2022/07/08 01:57:53;;;;;;;4.22;4.00;;;;;;;18.15;100.00;63879.94;5023859;28;20230;-75
2022/07/08 02:00:20;;;;;;;4.15;3.92;;;;;;;18.11;100.00;63870.09;5023593;28;20240;-74
2022/07/08 02:02:48;;;;;;;4.18;3.83;;;;;;;18.04;100.00;63867.97;5023995;28;20205;-74
2022/07/08 02:05:15;;;;;;;5.00;4.47;;;;;;;18.00;100.00;63864.31;5011301;28;20207;-75
2022/07/08 02:07:42;;;;;;;4.90;4.60;;;;;;;17.97;100.00;63860.66;5004275;28;20213;-74
2022/07/08 02:10:10;;;;;;;4.68;4.38;;;;;;;17.86;100.00;63847.16;5004321;28;20199;-73
2022/07/08 02:12:37;;;;;;;4.72;4.43;;;;;;;17.80;100.00;63838.34;5003929;28;20610;-73
2022/07/08 02:15:07;;;;;;;7.95;5.18;;;;;;;17.73;100.00;63833.09;5004148;28;20199;-73
2022/07/08 02:17:36;;;;;;;4.82;4.63;;;;;;;17.62;100.00;63821.66;5003638;28;20250;-74
2022/07/08 02:20:05;;;;;;;4.70;4.40;;;;;;;17.52;100.00;63809.19;5004228;28;20245;-74
2022/07/08 02:22:32;;;;;;;4.40;4.10;;;;;;;17.49;100.00;63805.53;5003796;28;20226;-74
2022/07/08 02:24:59;;;;;;;4.25;4.00;;;;;;;17.51;100.00;63805.56;5003787;28;20522;-74
2022/07/08 02:27:26;;;;;;;4.00;3.80;;;;;;;17.44;100.00;63802.88;5003745;28;20218;-73
2022/07/08 02:29:54;;;;;;;5.32;3.60;;;;;;;17.40;100.00;63799.22;5003635;28;20238;-74
2022/07/08 02:32:21;;;;;;;4.00;3.80;;;;;;;17.33;100.00;63789.38;5003978;28;20290;-74
2022/07/08 02:34:48;;;;;;;4.75;4.35;;;;;;;17.29;100.00;63790.88;5003823;28;20206;-74
2022/07/08 02:37:15;;;;;;;5.35;4.35;;;;;;;17.27;100.00;63785.72;5002961;28;20237;-74
2022/07/08 02:39:43;;;;;;;4.68;4.25;;;;;;;17.26;100.00;63782.59;5003277;28;20328;-74
2022/07/08 02:42:10;;;;;;;6.60;6.00;;;;;;;17.21;100.00;63776.88;5003523;28;20231;-74
2022/07/08 02:44:37;;;;;;;6.43;5.93;;;;;;;17.21;100.00;63779.44;5003861;28;20202;-74
2022/07/08 02:47:07;;;;;;;5.53;5.03;;;;;;;17.22;100.00;63783.09;5003524;28;20254;-75
2022/07/08 02:49:34;;;;;;;5.75;5.35;;;;;;;17.19;100.00;63775.31;5003797;28;20421;-74
2022/07/08 02:52:01;;;;;;;5.60;4.95;;;;;;;17.14;100.00;63775.25;5003624;28;20225;-74
2022/07/08 02:54:28;;;;;;;8.05;5.00;;;;;;;17.08;100.00;63763.34;5003136;28;20193;-74
2022/07/08 02:56:55;;;;;;;5.50;5.00;;;;;;;17.07;100.00;63762.31;5003320;28;20238;-73
2022/07/08 02:59:22;;;;;;;5.18;4.30;;;;;;;17.01;100.00;63766.38;5003516;28;20234;-74
2022/07/08 03:01:49;;;;;;;38.85;28.85;;;;;;;17.02;100.00;63759.69;5003244;28;20241;-74
2022/07/08 03:04:17;;;;;;;30.40;19.75;;;;;;;16.96;100.00;63753.94;5007592;28;20201;-75
2022/07/08 03:06:44;;;;;;;8.82;6.18;;;;;;;16.98;100.00;63753.47;5022794;28;20225;-74
2022/07/08 03:09:11;;;;;;;5.35;4.95;;;;;;;16.96;100.00;63756.53;5023507;28;20200;-74
2022/07/08 03:11:38;;;;;;;5.18;4.78;;;;;;;16.92;100.00;63747.22;5023018;28;20280;-74
2022/07/08 03:14:05;;;;;;;5.72;5.22;;;;;;;16.96;100.00;63753.94;5023121;28;20244;-75
2022/07/08 03:16:32;;;;;;;5.70;5.20;;;;;;;16.96;100.00;63751.38;5023198;28;20218;-74
2022/07/08 03:18:59;;;;;;;4.85;4.45;;;;;;;16.99;100.00;63754.50;5025290;28;20241;-74
2022/07/08 03:21:27;;;;;;;5.88;5.47;;;;;;;17.00;100.00;63760.16;5023917;28;20229;-74
2022/07/08 03:23:54;;;;;;;5.43;4.93;;;;;;;17.14;100.00;63772.69;5023691;28;20198;-74
2022/07/08 03:26:21;;;;;;;6.28;5.82;;;;;;;17.09;100.00;63764.38;5023408;28;20233;-74
2022/07/08 03:28:48;;;;;;;6.57;5.95;;;;;;;17.13;100.00;63771.66;5024941;28;20244;-75
2022/07/08 03:31:15;;;;;;;6.18;5.70;;;;;;;17.15;100.00;63768.06;5025170;28;20225;-74
2022/07/08 03:33:42;;;;;;;6.22;5.63;;;;;;;17.11;100.00;63769.06;5023284;28;20522;-75
2022/07/08 03:36:10;;;;;;;6.30;5.82;;;;;;;16.95;100.00;63749.81;5023095;28;20481;-74
2022/07/08 03:38:38;;;;;;;6.05;5.55;;;;;;;16.96;100.00;63750.88;5023096;28;20233;-73
2022/07/08 03:41:24;;;;;;;5.28;4.88;;;;;;;17.00;100.00;63752.97;5022692;28;20259;-74
2022/07/08 03:43:52;;;;;;;6.38;5.20;;;;;;;17.14;100.00;63772.16;5023038;28;20509;-75
2022/07/08 03:46:20;;;;;;;5.45;4.95;;;;;;;17.18;100.00;63778.91;5023183;28;20289;-74
2022/07/08 03:48:47;;;;;;;5.00;4.80;;;;;;;17.26;100.00;63787.75;5024467;28;20201;-74
2022/07/08 03:51:15;;;;;;;4.63;4.32;;;;;;;17.28;100.00;63787.28;5026758;28;20221;-74
2022/07/08 03:53:44;;;;;;;5.28;4.85;;;;;;;17.38;100.00;63794.56;5026510;28;20487;-73
2022/07/08 03:56:12;;;;;;;5.18;4.68;;;;;;;17.53;100.00;63812.81;5026557;28;20218;-74
2022/07/08 03:58:39;;;;;;;5.30;5.00;;;;;;;17.65;100.00;63824.78;5026007;28;20240;-75
2022/07/08 04:01:07;;;;;;;4.80;4.50;;;;;;;17.83;100.00;63840.94;5025846;28;20362;-74
2022/07/08 04:03:34;;;;;;;6.75;6.13;;;;;;;17.89;100.00;63847.72;5026313;28;20202;-74
2022/07/08 04:06:01;;;;;;;6.72;5.43;;;;;;;18.02;100.00;63861.25;5027949;28;20222;-75
2022/07/08 04:08:28;;;;;;;6.05;5.55;;;;;;;18.17;100.00;63878.94;5026277;28;20244;-74
2022/07/08 04:10:57;;;;;;;6.47;5.88;;;;;;;18.27;100.00;63886.78;5027221;28;20222;-74
2022/07/08 04:13:27;;;;;;;6.88;5.60;;;;;;;18.41;100.00;63904.47;5032342;28;20198;-75
2022/07/08 04:16:02;;;;;;;6.25;5.65;;;;;;;18.35;100.00;63895.63;5034331;28;20260;-72
2022/07/08 04:18:29;;;;;;;6.43;5.95;;;;;;;18.39;100.00;63897.22;5030277;28;20428;-74
2022/07/08 04:20:56;;;;;;;6.50;6.10;;;;;;;18.65;100.00;63926.41;5025742;28;20225;-75
2022/07/08 04:23:23;;;;;;;5.72;5.30;;;;;;;18.79;100.00;63943.56;5026020;28;20202;-74
2022/07/08 04:25:50;;;;;;;6.28;5.78;;;;;;;18.70;100.00;63923.88;5025073;28;20218;-75
2022/07/08 04:28:18;;;;;;;6.07;5.57;;;;;;;18.70;100.00;63931.59;5025908;28;20274;-74
2022/07/08 04:30:45;;;;;;;6.88;6.10;;;;;;;18.79;100.00;63943.56;5025410;28;20218;-74
2022/07/08 04:33:12;;;;;;;6.95;6.25;;;;;;;18.97;100.00;63959.22;5025658;28;20380;-73
2022/07/08 04:35:39;;;;;;;7.45;5.93;;;;;;;18.80;100.00;63944.06;5025323;28;20225;-74
2022/07/08 04:38:06;;;;;;;7.35;6.60;;;;;;;18.87;100.00;63951.91;5025161;28;20490;-73
2022/07/08 04:40:33;;;;;;;8.02;6.57;;;;;;;18.57;100.00;63925.28;5025364;28;20232;-74
2022/07/08 04:43:00;;;;;;;7.43;6.75;;;;;;;18.13;100.00;63875.28;5025181;28;20198;-74
2022/07/08 04:45:31;;;;;;;8.13;7.10;;;;;;;18.32;100.00;63894.56;5028121;28;20289;-73
2022/07/08 04:47:59;;;;;;;7.10;6.53;;;;;;;18.25;100.00;63882.13;5029891;28;20198;-73
2022/07/08 04:50:26;;;;;;;7.28;6.70;;;;;;;18.30;100.00;63892.47;5028307;28;20221;-74
2022/07/08 04:52:53;;;;;;;7.80;7.00;;;;;;;18.45;100.00;63910.19;5025497;28;20403;-74
2022/07/08 04:55:29;;;;;;;7.72;7.13;;;;;;;18.58;100.00;63918.56;5026992;28;20206;-73
2022/07/08 04:57:57;;;;;;;7.60;7.00;;;;;;;18.56;100.00;63924.75;5028672;28;20214;-74
2022/07/08 05:00:25;;;;;;;7.03;6.32;;;;;;;18.48;100.00;63911.25;5025023;28;20310;-75
2022/07/08 05:02:53;;;;;;;8.00;6.22;;;;;;;18.86;100.00;63947.75;5025862;28;20209;-73
2022/07/08 05:05:21;;;;;;;6.38;5.97;;;;;;;19.02;100.00;63967.53;5026473;28;20249;-74
2022/07/08 05:07:48;;;;;;;7.88;7.05;;;;;;;19.27;100.00;63995.66;5026203;28;20398;-74
2022/07/08 05:10:16;;;;;;;6.65;6.05;;;;;;;19.45;100.00;64011.88;5024440;28;20202;-75
2022/07/08 05:12:43;;;;;;;7.50;6.78;;;;;;;19.68;100.00;64028.13;5024391;28;20198;-74
2022/07/08 05:15:11;;;;;;;6.65;5.93;;;;;;;19.89;100.00;64057.78;5024639;28;20280;-74
2022/07/08 05:17:39;;;;;;;7.20;6.50;;;;;;;20.09;98.76;64081.22;5024532;28;20202;-74
2022/07/08 05:20:09;;;;;;;8.73;7.13;;;;;;;20.10;97.71;64081.75;5024103;28;20245;-74
2022/07/08 05:22:36;;;;;;;7.35;6.68;;;;;;;20.01;99.79;64074.94;5024797;28;20253;-73
2022/07/08 05:25:03;;;;;;;7.15;6.45;;;;;;;20.16;98.68;64085.97;5024698;28;20436;-74
2022/07/08 05:27:31;;;;;;;7.53;6.13;;;;;;;20.10;99.34;64074.00;5024450;28;20230;-74
2022/07/08 05:29:58;;;;;;;7.20;6.32;;;;;;;20.27;99.21;64094.88;5025137;28;20503;-74
2022/07/08 05:32:25;;;;;;;6.25;5.85;;;;;;;20.40;98.93;64105.84;5024572;28;20268;-73
2022/07/08 05:34:52;;;;;;;6.47;5.90;;;;;;;20.23;98.25;64090.69;5024289;28;20367;-74
2022/07/08 05:37:20;;;;;;;6.63;6.13;;;;;;;20.13;99.15;64082.81;5023619;28;20267;-73
2022/07/08 05:39:47;;;;;;;7.03;6.00;;;;;;;20.25;98.41;64097.41;5023865;28;20229;-74
2022/07/08 05:42:18;;;;;;;6.47;5.88;;;;;;;20.47;97.11;64123.50;5024545;28;20606;-74
2022/07/08 05:44:45;;;;;;;6.43;5.78;;;;;;;20.67;94.19;64139.19;5024963;28;20203;-74
2022/07/08 05:47:13;;;;;;;6.78;6.00;;;;;;;20.79;92.04;64146.03;5023952;28;20218;-74
2022/07/08 05:49:43;;;;;;;7.65;6.32;;;;;;;20.83;93.80;64152.28;5024603;28;20202;-73
2022/07/08 05:52:11;;;;;;;7.53;6.30;;;;;;;20.89;93.48;64159.06;5024327;28;20214;-74
2022/07/08 05:54:39;;;;;;;7.63;6.90;;;;;;;20.86;93.16;64158.00;5024201;28;20491;-74
2022/07/08 05:57:06;;;;;;;8.07;7.35;;;;;;;20.89;92.57;64158.53;5023579;28;20225;-74
2022/07/08 05:59:33;;;;;;;7.03;6.30;;;;;;;21.12;90.67;64185.16;5023696;28;20403;-73
2022/07/08 06:02:01;;;;;;;7.80;6.97;;;;;;;21.33;88.94;64205.00;5023680;28;20229;-73
2022/07/08 06:04:28;;;;;;;7.80;6.93;;;;;;;21.08;90.94;64180.97;5024132;28;20257;-74
2022/07/08 06:06:55;;;;;;;9.77;6.88;;;;;;;21.05;91.12;64180.97;5023441;28;20218;-73
2022/07/08 06:09:22;;;;;;;7.03;6.50;;;;;;;21.00;92.34;64170.53;5024095;28;20206;-74
2022/07/08 06:11:51;;;;;;;7.78;7.00;;;;;;;21.13;90.54;64184.13;5023071;28;20222;-74
2022/07/08 06:14:18;;;;;;;9.48;6.15;;;;;;;20.98;92.46;64167.94;5023476;28;20198;-74
2022/07/08 06:16:47;;;;;;;7.28;6.57;;;;;;;20.88;92.82;64158.00;5023202;28;20226;-74
2022/07/08 06:19:14;;;;;;;7.72;7.03;;;;;;;20.95;92.15;64173.06;5023977;28;20229;-74
2022/07/08 06:21:41;;;;;;;9.52;6.78;;;;;;;21.12;93.44;64187.75;5023614;28;20542;-74
2022/07/08 06:24:09;;;;;;;8.45;6.65;;;;;;;21.31;91.18;64205.00;5023597;28;20194;-74
2022/07/08 06:26:36;;;;;;;9.70;6.10;;;;;;;21.16;90.07;64184.13;5023383;28;20218;-74
2022/07/08 06:29:05;;;;;;;10.80;6.72;;;;;;;21.33;88.78;64207.09;5024044;28;20217;-74
2022/07/08 06:31:33;;;;;;;6.75;6.22;;;;;;;21.35;89.83;64207.09;5024679;28;20214;-73
2022/07/08 06:34:00;;;;;;;10.65;6.55;;;;;;;21.36;89.74;64207.63;5023201;28;20244;-74
2022/07/08 06:36:28;;;;;;;6.93;6.32;;;;;;;21.27;93.15;64201.34;5025725;28;20228;-74
2022/07/08 06:38:54;;;;;;;10.40;6.55;;;;;;;21.52;92.80;64226.91;5028818;28;20534;-73
2022/07/08 06:41:21;;;;;;;9.77;8.02;;;;;;;21.82;89.22;64255.16;5025180;28;20217;-73
2022/07/08 06:43:48;;;;;;;9.48;6.60;;;;;;;21.68;87.70;64241.06;5025105;28;20213;-74
2022/07/08 06:46:17;;;;;;;7.50;6.43;;;;;;;21.74;89.34;64252.50;5023744;28;20222;-74
2022/07/08 06:48:44;;;;;;;13.55;7.68;;;;;;;21.71;87.37;64244.72;5023602;28;20208;-74
2022/07/08 06:51:11;;;;;;;9.27;7.22;;;;;;;21.94;86.54;64270.84;5023639;28;20213;-74
2022/07/08 06:56:31;;;;;;;8.05;7.15;;;;;;;21.88;82.93;64259.38;4988268;28;20444;-75
2022/07/08 06:59:01;;;;;;;10.65;7.35;;;;;;;22.03;84.81;64277.66;5024517;28;20268;-74
2022/07/08 07:01:29;;;;;;;7.05;6.28;;;;;;;22.16;83.44;64290.72;5023774;28;20218;-74
2022/07/08 07:03:56;;;;;;;7.00;6.50;;;;;;;22.19;81.79;64296.97;5024430;28;20244;-74
2022/07/08 07:06:24;;;;;;;6.88;6.18;;;;;;;22.10;80.84;64287.03;5023778;28;20241;-73
2022/07/08 07:08:51;;;;;;;8.85;6.10;;;;;;;22.09;79.63;64288.59;5023629;28;20262;-74
2022/07/08 07:11:18;;;;;;;8.48;5.63;;;;;;;22.23;78.30;64300.59;5024222;28;20467;-75
2022/07/08 07:13:46;;;;;;;8.82;4.25;;;;;;;22.44;77.38;64325.69;5024997;28;20197;-74
2022/07/08 07:16:12;;;;;;;4.13;3.85;;;;;;;22.69;68.40;64349.25;5024406;28;20218;-75
2022/07/08 07:18:41;;;;;;;6.38;4.03;;;;;;;22.59;65.85;64340.88;5024076;28;20387;-75
2022/07/08 07:21:09;;;;;;;5.30;4.30;;;;;;;22.78;66.86;64355.53;5023580;28;20242;-74
2022/07/08 07:23:36;;;;;;;7.60;5.20;;;;;;;22.87;69.63;64368.06;5024219;28;20201;-74
2022/07/08 07:26:05;;;;;;;5.10;3.83;;;;;;;22.67;70.64;64346.63;5027714;28;20225;-74
2022/07/08 07:28:32;;;;;;;5.28;4.85;;;;;;;22.90;69.94;64368.06;5027600;28;20427;-75
2022/07/08 07:30:59;;;;;;;7.25;4.90;;;;;;;22.98;68.32;64379.06;5027201;28;20225;-73
2022/07/08 07:33:26;;;;;;;8.23;4.30;;;;;;;23.23;66.57;64405.19;5027433;28;20381;-74
2022/07/08 07:35:56;;;;;;;7.25;4.88;;;;;;;23.27;66.76;64408.84;5027037;28;20264;-74
2022/07/08 07:38:23;;;;;;;4.50;3.63;;;;;;;23.54;67.88;64434.53;5026899;28;20436;-74
2022/07/08 07:40:50;;;;;;;4.72;3.83;;;;;;;23.82;65.51;64469.56;5027757;28;20316;-75
2022/07/08 07:43:16;;;;;;;5.18;4.00;;;;;;;23.89;66.42;64471.69;5028257;28;20206;-74
2022/07/08 07:45:44;;;;;;;4.60;4.30;;;;;;;23.80;61.18;64466.94;5028842;28;20289;-73
2022/07/08 07:48:10;;;;;;;3.80;3.47;;;;;;;23.60;59.78;64446.53;5028129;28;20427;-74
2022/07/08 07:50:38;;;;;;;3.88;2.80;;;;;;;23.62;60.21;64448.09;5027704;28;20256;-74
2022/07/08 07:53:06;;;;;;;5.28;3.17;;;;;;;23.93;57.08;64480.53;5028109;28;20202;-74
2022/07/08 07:55:33;;;;;;;4.32;3.50;;;;;;;23.78;56.28;64462.75;5028030;28;20217;-75
2022/07/08 07:58:00;;;;;;;3.50;3.20;;;;;;;23.90;57.44;64474.81;5028041;28;20212;-75
2022/07/08 08:00:27;;;;;;;3.90;3.70;;;;;;;23.94;57.23;64476.38;5028266;28;20425;-75
2022/07/08 08:02:54;;;;;;;5.47;3.72;;;;;;;23.96;57.91;64483.69;5026740;28;20205;-74
2022/07/08 08:05:21;;;;;;;5.68;4.32;;;;;;;23.71;56.62;64452.31;5026140;28;20265;-75
2022/07/08 08:07:48;;;;;;;3.97;3.67;;;;;;;23.94;56.12;64481.56;5026467;28;20244;-74
2022/07/08 08:10:17;;;;;;;3.40;3.20;;;;;;;23.95;60.76;64480.03;5026591;28;20201;-75
2022/07/08 08:12:44;;;;;;;3.33;2.90;;;;;;;24.33;57.79;64519.31;5025944;28;20194;-75
2022/07/08 08:15:11;;;;;;;2.78;2.67;;;;;;;24.42;54.73;64526.63;5026663;28;20245;-75
2022/07/08 08:17:39;;;;;;;3.47;3.28;;;;;;;24.29;55.18;64510.44;5026222;28;20566;-76
2022/07/08 08:20:07;;;;;;;2.58;2.47;;;;;;;24.19;56.70;64507.25;5028975;28;20229;-74
2022/07/08 08:22:34;;;;;;;3.13;3.03;;;;;;;24.40;57.75;64524.53;5029235;28;20198;-75
2022/07/08 08:25:02;;;;;;;3.35;3.17;;;;;;;24.05;56.93;64487.91;5027427;28;20202;-74
2022/07/08 08:27:31;;;;;;;7.25;3.10;;;;;;;24.40;58.99;64527.16;5027145;28;20233;-74
2022/07/08 08:29:57;;;;;;;2.92;2.80;;;;;;;24.79;57.74;64570.63;5027171;28;20194;-75
2022/07/08 08:32:24;;;;;;;3.55;3.10;;;;;;;25.08;56.95;64601.00;5026982;28;20226;-75
2022/07/08 08:34:51;;;;;;;2.70;2.60;;;;;;;25.29;53.80;64616.72;5027778;28;20198;-74
2022/07/08 08:37:18;;;;;;;2.80;2.70;;;;;;;25.52;55.12;64643.44;5026940;28;20221;-74
2022/07/08 08:39:45;;;;;;;3.25;3.00;;;;;;;25.70;53.51;64665.44;5026807;28;20230;-75
2022/07/08 08:42:15;;;;;;;2.80;2.70;;;;;;;25.94;51.89;64684.84;5027722;28;20256;-74
2022/07/08 08:44:43;;;;;;;2.80;2.70;;;;;;;25.82;51.56;64678.03;5027771;28;20194;-74
2022/07/08 08:47:13;;;;;;;3.20;3.08;;;;;;;26.04;50.93;64700.59;5029214;28;20245;-74
2022/07/08 08:49:42;;;;;;;4.22;3.40;;;;;;;25.80;53.08;64678.03;5028622;28;20229;-73
2022/07/08 08:52:10;;;;;;;3.60;3.30;;;;;;;25.89;51.03;64679.59;5028789;28;20218;-74
2022/07/08 08:54:38;;;;;;;3.80;3.60;;;;;;;25.74;51.36;64669.13;5025822;28;20257;-75
2022/07/08 08:57:05;;;;;;;2.78;2.67;;;;;;;26.03;51.51;64700.06;5025622;28;20225;-73
2022/07/08 08:59:34;;;;;;;3.35;3.10;;;;;;;26.37;52.34;64729.94;5025942;28;20210;-74
2022/07/08 09:02:03;;;;;;;3.58;3.25;;;;;;;26.45;49.22;64740.97;5025280;28;20433;-74
2022/07/08 09:04:32;;;;;;;5.07;2.90;;;;;;;26.15;47.22;64712.63;5025379;28;20198;-74
2022/07/08 09:07:01;;;;;;;2.45;2.35;;;;;;;25.91;49.54;64689.53;5025269;28;20218;-74
2022/07/08 09:09:28;;;;;;;3.47;2.67;;;;;;;26.23;47.74;64722.59;5025775;28;20205;-74
2022/07/08 09:11:55;;;;;;;3.08;2.88;;;;;;;26.53;47.86;64751.94;5025436;28;20375;-74
2022/07/08 09:14:23;;;;;;;2.70;2.60;;;;;;;26.52;47.72;64747.78;5025774;28;20273;-74
2022/07/08 09:17:12;;;;;;;3.53;3.00;;;;;;;26.38;50.88;64733.09;5024992;28;20638;-74
2022/07/08 09:19:42;;;;;;;3.10;3.00;;;;;;;26.68;50.06;64764.56;5025491;28;20251;-76
2022/07/08 09:22:10;;;;;;;2.53;2.42;;;;;;;26.75;48.11;64774.53;5024809;28;20510;-74
2022/07/08 09:24:38;;;;;;;3.72;3.42;;;;;;;26.65;47.97;64764.00;5025060;28;20224;-75
2022/07/08 09:27:06;;;;;;;3.35;2.72;;;;;;;26.81;45.16;64781.34;5024830;28;20264;-74
2022/07/08 09:29:34;;;;;;;3.00;2.90;;;;;;;26.63;47.63;64759.31;5025362;28;20206;-74
2022/07/08 09:32:13;;;;;;;3.40;3.15;;;;;;;26.18;46.74;64712.63;5024821;28;20277;-74
2022/07/08 09:34:42;;;;;;;2.70;2.60;;;;;;;26.11;45.61;64702.72;5025133;28;20220;-75
2022/07/08 09:37:13;;;;;;;3.45;2.90;;;;;;;25.92;47.45;64685.38;5024846;28;20214;-74
2022/07/08 09:39:40;;;;;;;2.80;2.70;;;;;;;25.90;46.21;64685.88;5024354;28;20401;-73
2022/07/08 09:42:08;;;;;;;3.80;2.95;;;;;;;26.27;47.58;64724.16;5024680;28;20245;-74
2022/07/08 09:44:35;;;;;;;4.47;3.10;;;;;;;26.30;48.41;64725.22;5024636;28;20205;-74
2022/07/08 09:47:09;;;;;;;3.15;3.05;;;;;;;26.42;49.37;64737.28;5024294;28;20222;-75
2022/07/08 09:49:40;;;;;;;3.22;3.03;;;;;;;26.54;48.04;64752.47;5025114;28;20210;-76
2022/07/08 09:52:09;;;;;;;3.65;3.45;;;;;;;26.02;49.25;64693.78;5024564;28;20217;-75
2022/07/08 09:54:37;;;;;;;2.92;2.83;;;;;;;26.25;49.74;64722.59;5024277;28;20249;-74
2022/07/08 09:57:06;;;;;;;3.00;2.72;;;;;;;26.48;49.92;64746.19;5024584;28;20218;-74
2022/07/08 09:59:35;;;;;;;5.43;2.92;;;;;;;26.95;49.15;64793.41;5024603;28;20194;-75
2022/07/08 10:02:02;;;;;;;4.28;3.08;;;;;;;27.33;49.15;64835.38;5028084;28;20210;-76
2022/07/08 10:04:29;;;;;;;2.72;2.63;;;;;;;27.21;44.18;64822.78;5029600;28;20198;-75
2022/07/08 10:06:59;;;;;;;3.33;3.03;;;;;;;26.76;44.14;64773.50;5027684;28;20530;-73
2022/07/08 10:09:27;;;;;;;3.08;2.97;;;;;;;26.86;45.07;64783.97;5025934;28;20269;-74
2022/07/08 10:11:55;;;;;;;2.60;2.42;;;;;;;27.09;48.10;64810.69;5025605;28;20253;-74
2022/07/08 10:14:22;;;;;;;2.83;2.60;;;;;;;27.51;45.06;64851.13;5024698;28;20198;-74
2022/07/08 10:16:50;;;;;;;2.95;2.75;;;;;;;27.80;45.75;64881.56;5024690;28;20226;-75
2022/07/08 10:19:21;;;;;;;2.28;2.17;;;;;;;28.15;43.40;64916.22;5024336;28;20229;-75
2022/07/08 10:21:53;;;;;;;4.05;3.03;;;;;;;28.25;42.97;64929.34;5023989;28;20538;-74
2022/07/08 10:24:25;;;;;;;3.17;2.72;;;;;;;28.40;43.30;64944.56;5024584;28;20213;-74
2022/07/08 10:26:54;;;;;;;2.70;2.60;;;;;;;27.95;42.36;64902.56;5025210;28;20218;-74
2022/07/08 10:29:30;;;;;;;2.67;2.58;;;;;;;28.12;43.60;64915.69;5024318;28;20199;-75
2022/07/08 10:31:57;;;;;;;2.92;2.78;;;;;;;28.31;44.78;64940.91;5026330;28;20221;-74
2022/07/08 10:34:30;;;;;;;3.55;3.35;;;;;;;28.38;44.45;64939.84;5025826;28;20230;-74
2022/07/08 10:36:58;;;;;;;3.95;3.38;;;;;;;28.53;44.97;64958.25;5025349;28;20218;-74
2022/07/08 10:39:27;;;;;;;4.55;2.85;;;;;;;28.28;43.08;64935.13;5025358;28;20204;-74
2022/07/08 10:42:03;;;;;;;3.92;3.63;;;;;;;27.92;42.30;64896.81;5025602;28;20397;-74
2022/07/08 10:44:50;;;;;;;3.55;3.33;;;;;;;28.05;40.76;64910.44;5026423;28;20224;-74
2022/07/08 10:47:18;;;;;;;2.92;2.67;;;;;;;28.13;41.00;64924.09;5027192;28;20264;-74
2022/07/08 10:49:46;;;;;;;2.67;2.58;;;;;;;28.36;40.66;64946.16;5026613;28;20269;-74
2022/07/08 10:52:15;;;;;;;3.70;3.50;;;;;;;28.42;38.11;64947.19;5027316;28;20229;-74
2022/07/08 10:54:48;;;;;;;2.83;2.72;;;;;;;28.71;39.57;64979.25;5028078;28;20229;-73
2022/07/08 10:57:25;;;;;;;3.20;3.00;;;;;;;28.84;42.99;64990.25;5028050;28;20210;-74
2022/07/08 11:00:05;;;;;;;4.00;3.70;;;;;;;28.85;41.23;64996.56;5024629;28;20631;-73
2022/07/08 11:02:32;;;;;;;2.80;2.70;;;;;;;28.59;40.14;64969.78;5024725;28;20459;-74
2022/07/08 11:04:59;;;;;;;3.10;2.90;;;;;;;28.90;40.24;64999.72;5024653;28;20201;-74
2022/07/08 11:07:28;;;;;;;2.92;2.83;;;;;;;29.62;41.28;65072.25;5024817;28;20227;-74
2022/07/08 11:10:05;;;;;;;3.60;2.75;;;;;;;29.69;41.01;65079.63;5024143;28;20221;-74
2022/07/08 11:12:34;;;;;;;3.25;3.15;;;;;;;30.22;40.30;65134.78;5023873;28;20253;-74
2022/07/08 11:18:06;;;;;;;4.00;3.10;;;;;;;30.51;37.52;65165.84;5029549;28;20205;-74
2022/07/08 11:20:37;;;;;;;2.63;2.42;;;;;;;29.74;37.81;65086.97;5028846;28;20276;-74
2022/07/08 11:23:06;;;;;;;2.70;2.53;;;;;;;28.76;39.10;64982.41;5028552;28;20233;-73
2022/07/08 11:25:34;;;;;;;5.18;2.55;;;;;;;28.74;40.38;64982.91;5025495;28;20225;-73
2022/07/08 11:28:01;;;;;;;2.30;2.20;;;;;;;28.78;41.23;64981.88;5024347;28;20230;-73
2022/07/08 11:30:30;;;;;;;2.78;2.67;;;;;;;28.98;42.49;65007.59;5023845;28;20291;-73
2022/07/08 11:33:00;;;;;;;3.60;2.85;;;;;;;28.93;43.00;65007.59;5025258;28;20218;-74
2022/07/08 11:35:28;;;;;;;3.15;3.05;;;;;;;29.18;42.11;65031.78;5029593;28;20224;-74
2022/07/08 11:37:55;;;;;;;2.95;2.08;;;;;;;29.49;42.04;65059.09;5029413;28;20216;-73
2022/07/08 11:40:22;;;;;;;2.60;2.40;;;;;;;29.75;40.71;65088.56;5028987;28;20441;-74